Time;durP1;ratioP1;P1;durP2;ratioP2;P2;SDS_P1;SDS_P2;PMS_P1;PMS_P2;Temp;Humidity;BMP_temperature;BMP_pressure;BME280_temperature;BME280_humidity;BME280_pressure;Samples;Min_cycle;Max_cycle;Signal;HPM_P1;HPM_P2
2021/09/08 00:02:18;;;;;;;;;11.75;10.25;;;;;25.45;36.78;101134.09;4849215;29;46064;-70
2021/09/08 00:04:43;;;;;;;;;11.25;11.25;;;;;25.37;36.41;101126.56;4849314;29;45340;-70
2021/09/08 00:07:08;;;;;;;;;12.50;12.50;;;;;25.44;36.39;101135.97;4849234;29;45411;-70
2021/09/08 00:09:34;;;;;;;;;11.00;11.00;;;;;25.42;36.58;101126.16;4849384;29;45317;-70
2021/09/08 00:11:59;;;;;;;;;13.50;13.00;;;;;25.43;37.14;101128.75;4848750;29;45321;-70
2021/09/08 00:14:24;;;;;;;;;13.00;11.25;;;;;25.37;36.50;101118.34;4834519;29;45385;-70
2021/09/08 00:16:50;;;;;;;;;8.25;7.25;;;;;25.38;36.85;101119.25;4855714;29;45330;-70
2021/09/08 00:19:15;;;;;;;;;12.50;11.00;;;;;25.35;37.08;101124.97;4848984;29;45356;-70
2021/09/08 00:21:41;;;;;;;;;10.25;10.25;;;;;25.32;36.91;101110.56;4850043;29;45390;-70
2021/09/08 00:24:06;;;;;;;;;11.50;11.50;;;;;25.35;37.29;101111.31;4848672;29;45218;-70
2021/09/08 00:26:31;;;;;;;;;8.25;8.25;;;;;25.32;36.68;101109.72;4849175;29;45372;-70
2021/09/08 00:28:57;;;;;;;;;10.50;10.00;;;;;25.28;37.21;101103.66;4848376;29;45389;-70
2021/09/08 00:31:22;;;;;;;;;12.75;12.75;;;;;25.24;37.46;101093.09;4852654;29;45336;-70
2021/09/08 00:33:47;;;;;;;;;12.50;11.50;;;;;25.27;37.56;101101.06;4848620;29;45354;-70
2021/09/08 00:36:13;;;;;;;;;11.75;9.50;;;;;25.26;37.42;101093.81;4847856;29;45264;-70
2021/09/08 00:38:38;;;;;;;;;10.00;9.00;;;;;25.22;37.17;101089.66;4847048;29;45285;-70
2021/09/08 00:41:03;;;;;;;;;10.50;10.50;;;;;25.22;36.92;101086.91;4857346;29;46947;-70
2021/09/08 00:43:29;;;;;;;;;11.25;11.25;;;;;25.22;36.78;101073.25;4848010;29;45291;-70
2021/09/08 00:45:56;;;;;;;;;9.75;9.75;;;;;25.22;37.03;101070.53;4849026;29;45382;-70
2021/09/08 00:48:22;;;;;;;;;10.25;10.25;;;;;25.22;37.19;101071.38;4848555;29;45474;-70
2021/09/08 00:50:49;;;;;;;;;12.75;11.50;;;;;25.19;37.28;101070.78;4848799;29;46206;-70
2021/09/08 00:53:20;;;;;;;;;11.75;10.25;;;;;25.23;37.70;101072.25;4848231;29;45313;-70
2021/09/08 00:55:47;;;;;;;;;12.75;11.25;;;;;25.20;36.92;101075.25;4848470;29;45255;-70
2021/09/08 00:58:13;;;;;;;;;12.50;11.50;;;;;25.14;37.64;101058.44;4848100;29;45477;-70
2021/09/08 01:00:39;;;;;;;;;10.75;9.75;;;;;25.20;37.60;101067.06;4848376;29;45890;-69
2021/09/08 01:03:05;;;;;;;;;9.50;9.00;;;;;25.14;37.73;101068.47;4848219;29;45322;-70
2021/09/08 01:05:31;;;;;;;;;11.25;10.00;;;;;25.12;37.66;101063.13;4848629;29;45323;-70
2021/09/08 01:07:56;;;;;;;;;11.00;11.00;;;;;25.13;37.01;101072.22;4848422;29;45544;-69
2021/09/08 01:10:23;;;;;;;;;14.75;12.50;;;;;25.10;37.57;101050.63;4848294;29;45393;-70
2021/09/08 01:12:48;;;;;;;;;11.50;10.50;;;;;25.10;37.06;101065.16;4846573;29;45474;-69
2021/09/08 01:15:14;;;;;;;;;10.25;9.75;;;;;25.11;37.17;101069.63;4840404;29;45307;-69
2021/09/08 01:17:41;;;;;;;;;12.00;11.00;;;;;25.10;37.90;101058.81;4848024;29;45320;-68
2021/09/08 01:20:07;;;;;;;;;13.75;10.75;;;;;25.09;37.38;101062.53;4848276;29;45347;-69
2021/09/08 01:22:34;;;;;;;;;12.75;11.00;;;;;25.08;37.20;101058.97;4846504;29;45270;-69
2021/09/08 01:24:59;;;;;;;;;12.75;11.00;;;;;25.05;37.76;101059.22;4848437;29;45432;-69
2021/09/08 01:27:25;;;;;;;;;11.00;10.00;;;;;25.00;37.62;101050.59;4847914;29;45274;-69
2021/09/08 01:29:51;;;;;;;;;10.25;10.25;;;;;25.00;37.89;101049.72;4851195;29;46052;-69
2021/09/08 01:32:16;;;;;;;;;14.50;12.00;;;;;24.93;37.54;101041.22;4848841;29;45300;-69
2021/09/08 01:34:41;;;;;;;;;12.00;10.75;;;;;24.95;37.55;101047.41;4848196;29;45375;-69
2021/09/08 01:37:09;;;;;;;;;12.25;11.00;;;;;24.91;38.21;101057.72;4844998;29;45300;-69
2021/09/08 01:39:34;;;;;;;;;12.75;11.75;;;;;24.86;37.97;101046.34;4847987;29;45338;-69
2021/09/08 01:42:00;;;;;;;;;10.50;10.25;;;;;24.82;38.30;101039.41;4857316;29;45458;-69
2021/09/08 01:44:25;;;;;;;;;10.75;10.75;;;;;24.81;37.88;101045.91;4847029;29;45476;-70
2021/09/08 01:46:53;;;;;;;;;12.75;11.50;;;;;24.77;38.13;101045.31;4847870;29;45327;-69
2021/09/08 01:49:18;;;;;;;;;11.75;11.25;;;;;24.74;38.26;101041.94;4847815;29;46181;-70
2021/09/08 01:51:44;;;;;;;;;13.50;11.50;;;;;24.70;38.73;101035.91;4847745;29;45403;-70
2021/09/08 01:54:10;;;;;;;;;11.75;11.75;;;;;24.71;38.95;101037.66;4847595;29;45501;-70
2021/09/08 01:56:35;;;;;;;;;12.50;12.50;;;;;24.65;38.63;101029.97;4847581;29;45583;-69
2021/09/08 01:59:00;;;;;;;;;13.25;11.00;;;;;24.67;38.51;101032.59;4846965;29;46122;-70
2021/09/08 02:01:26;;;;;;;;;13.00;13.00;;;;;24.60;38.34;101015.88;4847587;29;45372;-70
2021/09/08 02:03:52;;;;;;;;;11.00;11.00;;;;;24.60;38.66;101021.34;4847615;29;45449;-70
2021/09/08 02:06:28;;;;;;;;;11.50;10.50;;;;;24.55;39.04;101015.41;4846079;29;45444;-70
2021/09/08 02:08:56;;;;;;;;;12.75;12.75;;;;;24.56;38.55;101017.16;4847646;29;45331;-70
2021/09/08 02:11:21;;;;;;;;;13.00;11.75;;;;;24.54;38.81;101017.25;4848601;29;45626;-70
2021/09/08 02:13:48;;;;;;;;;14.50;13.00;;;;;24.51;38.89;101017.53;4846486;29;45407;-69
2021/09/08 02:16:15;;;;;;;;;11.00;10.75;;;;;24.46;39.30;101003.41;4847125;29;45296;-70
2021/09/08 02:18:42;;;;;;;;;12.25;11.25;;;;;24.44;39.07;101008.16;4847331;29;46149;-70
2021/09/08 02:21:08;;;;;;;;;14.00;13.75;;;;;24.39;39.62;100994.91;4847661;29;45537;-70
2021/09/08 02:23:33;;;;;;;;;11.50;9.25;;;;;24.37;39.41;100994.19;4847357;29;45418;-70
2021/09/08 02:25:59;;;;;;;;;13.00;13.00;;;;;24.40;39.25;100995.75;4847370;29;45445;-70
2021/09/08 02:28:24;;;;;;;;;13.50;10.75;;;;;24.39;39.72;100997.63;4846878;29;46366;-69
2021/09/08 02:30:49;;;;;;;;;12.50;11.75;;;;;24.37;39.83;100994.19;4851893;29;45338;-70
2021/09/08 02:33:16;;;;;;;;;12.00;11.00;;;;;24.35;39.48;100993.41;4847305;29;45413;-70
2021/09/08 02:35:42;;;;;;;;;14.25;11.75;;;;;24.32;39.99;100990.09;4848011;29;45537;-69
2021/09/08 02:38:07;;;;;;;;;14.00;13.00;;;;;24.30;39.88;100987.50;4842991;29;46288;-69
2021/09/08 02:40:32;;;;;;;;;14.50;13.50;;;;;24.27;39.80;100979.56;4852629;29;45238;-70
2021/09/08 02:42:58;;;;;;;;;12.00;11.00;;;;;24.20;40.03;100975.66;4849267;29;45751;-69
2021/09/08 02:45:23;;;;;;;;;16.75;13.75;;;;;24.18;40.43;100969.47;4847102;29;45269;-70
2021/09/08 02:47:48;;;;;;;;;19.00;16.25;;;;;24.19;40.20;100974.81;4846782;29;45229;-69
2021/09/08 02:50:14;;;;;;;;;15.50;14.00;;;;;24.22;40.55;100974.53;4847244;29;45333;-69
2021/09/08 02:52:39;;;;;;;;;15.75;14.00;;;;;24.18;40.33;100972.22;4846866;29;45383;-70
2021/09/08 02:55:05;;;;;;;;;18.50;15.50;;;;;24.21;40.53;100969.22;4850921;29;45339;-69
2021/09/08 02:57:30;;;;;;;;;13.75;13.00;;;;;24.10;40.73;100955.63;4852969;29;45379;-69
2021/09/08 02:59:56;;;;;;;;;11.50;10.50;;;;;24.15;40.56;100969.75;4853030;29;45229;-70
2021/09/08 03:02:21;;;;;;;;;12.00;12.00;;;;;24.10;40.65;100955.63;4852939;29;45488;-69
2021/09/08 03:04:46;;;;;;;;;15.00;14.00;;;;;24.12;40.73;100959.09;4853122;29;45448;-69
2021/09/08 03:07:12;;;;;;;;;18.25;16.75;;;;;24.10;40.73;100951.03;4853004;29;45261;-69
2021/09/08 03:09:37;;;;;;;;;15.75;15.75;;;;;24.10;40.88;100950.19;4853087;29;45376;-69
2021/09/08 03:12:02;;;;;;;;;17.25;15.25;;;;;24.08;40.89;100952.19;4857762;29;45339;-69
2021/09/08 03:14:28;;;;;;;;;15.00;14.50;;;;;24.01;41.38;100943.66;4840057;29;45515;-69
2021/09/08 03:16:53;;;;;;;;;16.25;16.25;;;;;23.97;40.96;100947.63;4852892;29;46664;-69
2021/09/08 03:19:18;;;;;;;;;14.75;14.25;;;;;23.96;41.42;100944.06;4852692;29;45406;-70
2021/09/08 03:21:44;;;;;;;;;15.00;15.00;;;;;23.95;41.21;100942.31;4853183;29;45293;-69
2021/09/08 03:24:09;;;;;;;;;14.00;14.00;;;;;23.96;41.53;100941.34;4852438;29;45259;-69
2021/09/08 03:26:34;;;;;;;;;17.50;17.50;;;;;23.91;41.60;100937.28;4852907;29;46336;-69
2021/09/08 03:29:00;;;;;;;;;14.50;14.50;;;;;23.87;41.44;100936.66;4851092;29;45405;-69
2021/09/08 03:31:25;;;;;;;;;15.25;13.00;;;;;23.91;41.86;100943.59;4857739;29;45178;-69
2021/09/08 03:33:50;;;;;;;;;16.75;16.75;;;;;23.86;42.21;100938.53;4852499;29;46523;-69
2021/09/08 03:36:16;;;;;;;;;16.00;13.50;;;;;23.89;41.84;100934.69;4851179;29;46210;-69
2021/09/08 03:38:41;;;;;;;;;18.75;16.50;;;;;23.86;42.07;100933.06;4850620;29;45422;-70
2021/09/08 03:41:06;;;;;;;;;16.75;15.75;;;;;23.81;42.25;100923.53;4854624;29;45849;-69
2021/09/08 03:43:32;;;;;;;;;15.75;15.75;;;;;23.84;41.95;100931.50;4860430;29;45289;-70
2021/09/08 03:45:57;;;;;;;;;17.75;17.25;;;;;23.79;42.38;100930.97;4852556;29;46133;-69
2021/09/08 03:48:22;;;;;;;;;12.75;11.75;;;;;23.75;42.54;100916.72;4852341;29;45397;-69
2021/09/08 03:50:48;;;;;;;;;17.75;14.50;;;;;23.72;42.44;100910.69;4857300;29;45214;-69
2021/09/08 03:53:13;;;;;;;;;17.75;16.00;;;;;23.60;42.44;100891.66;4855450;29;45456;-69
2021/09/08 03:55:38;;;;;;;;;14.00;13.75;;;;;23.66;42.63;100904.75;4851838;29;45344;-69
2021/09/08 03:58:04;;;;;;;;;13.50;13.25;;;;;23.65;42.58;100897.56;4851906;29;45413;-69
2021/09/08 04:00:29;;;;;;;;;15.00;15.00;;;;;23.73;42.98;100902.38;4852680;29;45382;-69
2021/09/08 04:02:55;;;;;;;;;18.75;17.75;;;;;23.74;42.61;100903.25;4856197;29;45574;-69
2021/09/08 04:05:20;;;;;;;;;17.25;15.75;;;;;23.68;42.73;100894.59;4859802;29;45581;-69
2021/09/08 04:07:45;;;;;;;;;20.00;17.25;;;;;23.70;42.76;100894.47;4848800;29;45470;-70
2021/09/08 04:10:11;;;;;;;;;15.25;14.25;;;;;23.73;42.85;100896.06;4849529;29;45323;-69
2021/09/08 04:12:36;;;;;;;;;15.00;13.75;;;;;23.73;43.18;100901.53;4849433;29;45602;-69
2021/09/08 04:15:02;;;;;;;;;18.75;18.75;;;;;23.69;42.81;100890.03;4851055;29;46153;-69
2021/09/08 04:17:27;;;;;;;;;16.75;15.75;;;;;23.66;42.61;100885.69;4832541;29;45355;-69
2021/09/08 04:19:53;;;;;;;;;14.50;14.25;;;;;23.65;42.93;100883.94;4849069;29;45325;-69
2021/09/08 04:22:18;;;;;;;;;16.00;15.00;;;;;23.64;43.11;100886.84;4849054;29;45368;-70
2021/09/08 04:24:43;;;;;;;;;17.75;15.75;;;;;23.66;42.95;100893.88;4857089;29;46146;-69
2021/09/08 04:27:09;;;;;;;;;15.50;15.50;;;;;23.62;43.42;100889.69;4848806;29;45302;-70
2021/09/08 04:29:34;;;;;;;;;20.50;17.00;;;;;23.60;43.74;100880.75;4849066;29;45344;-69
2021/09/08 04:32:00;;;;;;;;;16.00;16.00;;;;;23.57;43.16;100869.25;4854257;29;45391;-70
2021/09/08 04:34:25;;;;;;;;;18.75;17.25;;;;;23.58;43.35;100876.44;4852776;29;48165;-69
2021/09/08 04:36:51;;;;;;;;;18.00;17.50;;;;;23.58;43.23;100876.44;4844603;29;45403;-70
2021/09/08 04:39:16;;;;;;;;;16.75;16.75;;;;;23.55;43.50;100882.16;4849139;29;45210;-70
2021/09/08 04:41:41;;;;;;;;;20.00;18.75;;;;;23.54;43.22;100885.88;4848602;29;45211;-69
2021/09/08 04:44:07;;;;;;;;;14.25;14.25;;;;;23.51;43.26;100884.28;4851204;29;45601;-69
2021/09/08 04:46:32;;;;;;;;;16.00;16.00;;;;;23.44;43.43;100873.03;4848745;29;45270;-70
2021/09/08 04:48:58;;;;;;;;;18.00;16.75;;;;;23.49;43.62;100883.56;4848950;29;45306;-70
2021/09/08 04:51:24;;;;;;;;;18.25;16.25;;;;;23.48;43.63;100887.25;4833553;29;45504;-70
2021/09/08 04:53:49;;;;;;;;;16.50;16.50;;;;;23.45;43.69;100874.75;4866425;29;46470;-69
2021/09/08 04:56:14;;;;;;;;;16.75;15.25;;;;;23.43;43.64;100882.19;4851104;29;45341;-70
2021/09/08 04:58:40;;;;;;;;;17.75;15.75;;;;;23.46;43.64;100892.84;4848467;29;45312;-69
2021/09/08 05:01:05;;;;;;;;;12.00;12.00;;;;;23.48;43.85;100892.72;4848554;29;45546;-70
2021/09/08 05:03:32;;;;;;;;;16.25;15.00;;;;;23.46;43.92;100892.84;4855386;29;45317;-70
2021/09/08 05:05:58;;;;;;;;;16.25;15.50;;;;;23.45;43.64;100892.97;4849678;29;45818;-71
2021/09/08 05:08:23;;;;;;;;;16.50;16.00;;;;;23.45;43.67;100888.38;4848313;29;45408;-70
2021/09/08 05:10:49;;;;;;;;;17.50;15.25;;;;;23.40;43.89;100878.88;4849226;29;45308;-70
2021/09/08 05:13:14;;;;;;;;;17.25;15.50;;;;;23.42;43.74;100876.88;4848999;29;45461;-70
2021/09/08 05:15:39;;;;;;;;;15.25;15.00;;;;;23.43;43.72;100881.34;4853159;29;45425;-70
2021/09/08 05:18:05;;;;;;;;;12.00;12.00;;;;;23.40;44.11;100879.72;4848249;29;45450;-71
2021/09/08 05:20:30;;;;;;;;;13.75;12.00;;;;;23.39;44.46;100883.47;4847330;29;45675;-70
2021/09/08 05:22:55;;;;;;;;;12.00;12.00;;;;;23.38;44.04;100878.13;4849728;29;45273;-70
2021/09/08 05:25:21;;;;;;;;;18.50;14.75;;;;;23.41;44.21;100881.47;4849725;29;45371;-73
2021/09/08 05:27:46;;;;;;;;;15.25;15.25;;;;;23.35;43.99;100881.13;4848062;29;45452;-76
2021/09/08 05:30:12;;;;;;;;;15.00;14.00;;;;;23.39;44.27;100886.19;4847696;29;45424;-77
2021/09/08 05:32:37;;;;;;;;;17.00;16.00;;;;;23.31;44.28;100880.50;4830889;29;46972;-76
2021/09/08 05:35:03;;;;;;;;;19.50;16.75;;;;;23.33;44.40;100880.38;4863096;29;45308;-76
2021/09/08 05:37:28;;;;;;;;;20.50;17.75;;;;;23.33;44.13;100889.41;4844239;29;45394;-77
2021/09/08 05:39:53;;;;;;;;;13.00;13.00;;;;;23.31;44.66;100881.38;4847206;29;45501;-78
2021/09/08 05:42:19;;;;;;;;;15.00;15.00;;;;;23.35;44.46;100881.97;4830763;29;48198;-77
2021/09/08 05:44:44;;;;;;;;;19.00;16.50;;;;;23.33;44.66;100880.38;4847603;29;45323;-77
2021/09/08 05:47:13;;;;;;;;;16.25;15.25;;;;;23.28;44.65;100876.19;4848020;29;45327;-77
2021/09/08 05:49:38;;;;;;;;;15.75;15.75;;;;;23.34;44.20;100884.81;4847616;29;45294;-76
2021/09/08 05:52:04;;;;;;;;;16.25;15.25;;;;;23.30;44.41;100878.78;4847813;29;45343;-76
2021/09/08 05:54:30;;;;;;;;;15.25;15.00;;;;;23.24;44.08;100873.88;4847791;29;45916;-77
2021/09/08 05:56:55;;;;;;;;;17.25;16.00;;;;;23.20;44.24;100881.41;4847528;29;45363;-77
2021/09/08 05:59:20;;;;;;;;;18.00;14.50;;;;;23.19;44.48;100884.25;4846884;29;45388;-77
2021/09/08 06:01:46;;;;;;;;;14.75;14.00;;;;;23.17;44.50;100878.97;4847235;29;46109;-77
2021/09/08 06:04:11;;;;;;;;;18.75;16.25;;;;;23.14;44.46;100873.75;4853838;29;45141;-77
2021/09/08 06:06:39;;;;;;;;;16.25;15.50;;;;;23.17;44.37;100878.97;4848450;29;45655;-74
2021/09/08 06:09:04;;;;;;;;;15.00;15.00;;;;;23.07;44.56;100867.97;4848107;29;45435;-74
2021/09/08 06:11:30;;;;;;;;;15.75;14.25;;;;;23.09;44.72;100878.72;4854742;29;45403;-74
2021/09/08 06:13:55;;;;;;;;;18.75;17.25;;;;;22.97;44.51;100866.97;4850421;29;45517;-74
2021/09/08 06:16:24;;;;;;;;;15.50;15.50;;;;;22.92;44.50;100861.91;4846195;29;45490;-74
2021/09/08 06:18:49;;;;;;;;;17.75;16.00;;;;;22.88;44.98;100871.28;4846093;29;45502;-74
2021/09/08 06:21:17;;;;;;;;;21.50;20.25;;;;;22.85;45.04;100871.53;4845892;29;46256;-72
2021/09/08 06:23:42;;;;;;;;;20.25;18.25;;;;;22.81;45.22;100866.50;4851749;29;45238;-73
2021/09/08 06:26:08;;;;;;;;;18.25;17.25;;;;;22.78;45.50;100864.03;4846069;29;45317;-74
2021/09/08 06:28:33;;;;;;;;;21.50;19.50;;;;;22.82;45.58;100873.66;4831357;29;45516;-75
2021/09/08 06:30:58;;;;;;;;;20.00;18.25;;;;;22.85;45.44;100867.97;4845316;29;45450;-75
2021/09/08 06:33:24;;;;;;;;;16.25;16.25;;;;;22.83;45.50;100864.50;4846970;29;45665;-75
2021/09/08 06:35:50;;;;;;;;;20.25;19.25;;;;;22.82;45.51;100857.31;4830500;29;45391;-75
2021/09/08 06:38:16;;;;;;;;;18.00;18.00;;;;;22.86;45.98;100869.72;4841834;29;45314;-74
2021/09/08 06:40:42;;;;;;;;;19.75;18.25;;;;;22.88;45.79;100870.44;4846659;29;46128;-73
2021/09/08 06:43:07;;;;;;;;;21.75;17.50;;;;;22.84;45.44;100858.94;4845878;29;45462;-75
2021/09/08 06:45:33;;;;;;;;;14.75;13.00;;;;;22.87;45.57;100855.09;4863049;29;45255;-74
2021/09/08 06:47:58;;;;;;;;;18.25;17.25;;;;;22.84;45.78;100849.94;4851476;29;45423;-74
2021/09/08 06:50:23;;;;;;;;;17.75;17.75;;;;;22.90;45.88;100855.72;4852012;29;48143;-74
2021/09/08 06:52:49;;;;;;;;;16.75;15.25;;;;;22.90;45.71;100861.16;4852776;29;45295;-74
2021/09/08 06:55:14;;;;;;;;;15.00;15.00;;;;;22.80;45.97;100848.44;4845588;29;45333;-71
2021/09/08 06:57:39;;;;;;;;;17.25;17.25;;;;;22.87;45.98;100861.41;4846984;29;45400;-71
2021/09/08 07:00:06;;;;;;;;;18.50;17.25;;;;;22.87;45.94;100857.81;4857229;29;47015;-73
2021/09/08 07:02:31;;;;;;;;;14.75;14.75;;;;;22.88;46.21;100868.56;4846663;29;45205;-74
2021/09/08 07:04:57;;;;;;;;;15.75;15.75;;;;;22.83;46.35;100846.31;4850802;29;45537;-74
2021/09/08 07:07:22;;;;;;;;;18.50;16.00;;;;;22.88;46.32;100848.66;4847690;29;45520;-74
2021/09/08 07:09:48;;;;;;;;;18.75;15.75;;;;;22.92;45.72;100848.28;4846628;29;45435;-74
2021/09/08 07:12:13;;;;;;;;;16.50;14.75;;;;;22.89;45.93;100839.53;4843897;29;45337;-74
2021/09/08 07:14:39;;;;;;;;;19.75;18.75;;;;;22.94;46.22;100835.41;4838414;29;46564;-74
2021/09/08 07:17:05;;;;;;;;;19.00;18.00;;;;;22.93;46.29;100843.69;4849262;29;45312;-74
2021/09/08 07:19:30;;;;;;;;;17.75;17.75;;;;;22.89;46.27;100829.50;4832901;29;47236;-74
2021/09/08 07:21:56;;;;;;;;;18.00;15.25;;;;;22.92;46.42;100829.25;4846342;29;45317;-74
2021/09/08 07:24:21;;;;;;;;;15.50;15.25;;;;;22.97;46.58;100839.75;4846792;29;45653;-74
2021/09/08 07:26:47;;;;;;;;;17.00;17.00;;;;;22.99;46.43;100839.59;4846229;29;45398;-74
2021/09/08 07:29:12;;;;;;;;;18.50;15.25;;;;;23.00;46.45;100834.03;4856825;29;45943;-74
2021/09/08 07:31:38;;;;;;;;;21.50;19.00;;;;;23.03;46.76;100841.09;4845990;29;45321;-74
2021/09/08 07:34:03;;;;;;;;;17.25;15.50;;;;;23.09;46.97;100843.34;4858948;29;45382;-74
2021/09/08 07:36:29;;;;;;;;;17.25;16.00;;;;;23.09;46.42;100835.16;4841897;29;45271;-74
2021/09/08 07:38:54;;;;;;;;;19.50;16.75;;;;;23.10;46.30;100828.72;4854436;29;46130;-74
2021/09/08 07:41:20;;;;;;;;;20.75;19.00;;;;;23.09;46.26;100835.16;4847280;29;45364;-74
2021/09/08 07:43:46;;;;;;;;;15.75;15.75;;;;;23.08;46.74;100830.72;4847340;29;45329;-75
2021/09/08 07:46:12;;;;;;;;;17.25;15.75;;;;;23.06;46.74;100817.22;4849459;29;45252;-74
2021/09/08 07:48:38;;;;;;;;;16.00;15.75;;;;;23.10;46.79;100813.25;4838416;29;47179;-75
2021/09/08 07:51:05;;;;;;;;;18.75;16.25;;;;;23.18;46.68;100828.06;4849330;29;45419;-74
2021/09/08 07:53:30;;;;;;;;;19.00;17.25;;;;;23.19;46.43;100825.22;4849653;29;45340;-74
2021/09/08 07:55:55;;;;;;;;;15.50;15.50;;;;;23.22;46.85;100818.66;4849250;29;45354;-74
2021/09/08 07:58:21;;;;;;;;;19.25;17.00;;;;;23.20;46.59;100817.91;4851570;29;45656;-74
2021/09/08 08:00:46;;;;;;;;;19.00;18.00;;;;;23.20;46.65;100816.03;4849209;29;45284;-74
2021/09/08 08:03:12;;;;;;;;;13.50;11.00;;;;;23.22;46.68;100810.47;4849371;29;45351;-74
2021/09/08 08:05:38;;;;;;;;;20.50;19.25;;;;;23.29;47.08;100822.59;4849181;29;45470;-74
2021/09/08 08:08:04;;;;;;;;;17.00;15.75;;;;;23.33;46.77;100824.06;4856320;29;45270;-74
2021/09/08 08:10:29;;;;;;;;;22.75;18.50;;;;;23.38;47.15;100826.38;4852135;29;45355;-74
2021/09/08 08:12:55;;;;;;;;;17.75;17.00;;;;;23.33;46.83;100818.59;4849506;29;45443;-74
2021/09/08 08:15:20;;;;;;;;;20.00;20.00;;;;;23.34;47.30;100814.00;4856323;29;45286;-74
2021/09/08 08:17:46;;;;;;;;;17.00;16.25;;;;;23.45;47.15;100827.59;4852693;29;45366;-74
2021/09/08 08:20:12;;;;;;;;;18.25;17.50;;;;;23.47;47.04;100828.31;4856237;29;45302;-74
2021/09/08 08:22:39;;;;;;;;;18.00;16.75;;;;;23.48;46.87;100828.19;4847619;29;45472;-74
2021/09/08 08:25:06;;;;;;;;;16.50;16.50;;;;;23.49;46.96;100820.91;4848987;29;45315;-74
2021/09/08 08:27:32;;;;;;;;;18.00;16.00;;;;;23.51;46.86;100827.06;4828890;29;47013;-74
2021/09/08 08:29:57;;;;;;;;;17.25;17.25;;;;;23.53;46.89;100824.22;4846535;29;46624;-72
2021/09/08 08:32:36;;;;;;;;;;;;;;;;;;;;;
2021/09/08 08:39:03;;;;;;;;;17.00;16.50;;;;;23.53;46.98;100797.81;4845650;29;46014;-70
2021/09/08 08:42:09;;;;;;;;;;;;;;;;;;;;;
2021/09/08 08:44:36;;;;;;;;;18.00;15.75;;;;;23.60;47.59;100787.25;4854748;29;67960;-70
2021/09/08 08:47:02;;;;;;;;;21.50;19.50;;;;;23.52;47.75;100771.56;4848383;29;45207;-70
2021/09/08 08:49:32;;;;;;;;;18.00;18.00;;;;;23.49;47.53;100761.81;4834978;29;45803;-70
2021/09/08 08:51:57;;;;;;;;;23.75;19.00;;;;;23.67;47.00;100772.97;4848009;29;45648;-70
2021/09/08 08:54:23;;;;;;;;;20.25;17.50;;;;;23.85;47.24;100799.63;4847701;29;45425;-69
2021/09/08 08:56:50;;;;;;;;;20.25;18.75;;;;;23.85;47.71;100786.00;4845734;29;45363;-73
2021/09/08 08:59:16;;;;;;;;;17.75;17.75;;;;;23.93;47.18;100791.66;4848775;29;46437;-72
2021/09/08 09:01:41;;;;;;;;;17.50;16.25;;;;;23.98;47.82;100791.25;4837939;29;45722;-73
2021/09/08 09:04:13;;;;;;;;;22.50;18.25;;;;;24.04;47.49;100791.56;4848406;29;45359;-73
2021/09/08 09:06:42;;;;;;;;;21.50;19.50;;;;;24.09;48.14;100793.91;4831518;29;45545;-74
2021/09/08 09:09:20;;;;;;;;;19.00;16.25;;;;;24.13;47.60;100786.31;4850949;29;45438;-77
2021/09/08 09:11:57;;;;;;;;;18.25;17.25;;;;;24.13;47.83;100778.13;4849999;29;45847;-75
2021/09/08 09:14:22;;;;;;;;;20.75;18.50;;;;;23.99;47.43;100736.59;4829524;29;45442;-74
2021/09/08 09:17:11;;;;;;;;;16.75;16.50;;;;;23.96;47.29;100712.31;4846241;29;45457;-76
2021/09/08 12:12:55;;;;;;;;;;;;;;;;;;;;;
2021/09/08 12:33:32;;;;;;;;;;;;;;;;;;;;;
2021/09/08 12:49:57;;;;;;;;;15.25;15.25;;;;;27.72;44.79;100611.91;4794612;29;45474;-67
2021/09/08 13:03:17;;;;;;;;;;;;;;;;;;;;;
2021/09/08 13:05:59;;;;;;;;;;;;;;;;;;;;;
2021/09/08 13:08:57;;;;;;;;;;;;;;;;;;;;;
2021/09/08 13:12:25;;;;;;;;;;;;;;;;;;;;;
2021/09/08 13:15:54;;;;;;;;;;;;;;;;;;;;;
2021/09/08 13:29:17;;;;;;;;;;;;;;;;;;;;;
2021/09/08 13:49:36;;;;;;;;;;;;;;;;;;;;;
2021/09/08 13:56:19;;;;;;;;;;;;;;;;;;;;;
2021/09/08 14:20:21;;;;;;;;;;;;;;;;;;;;;
2021/09/08 15:07:00;;;;;;;;;15.00;15.00;;;;;29.27;43.01;100516.09;4830436;29;45347;-73
2021/09/08 15:13:52;;;;;;;;;;;;;;;;;;;;;
2021/09/08 15:17:02;;;;;;;;;15.50;15.50;;;;;29.04;42.83;100467.41;4699188;30;75085;-75
2021/09/08 17:31:29;;;;;;;;;;;;;;;;;;;;;
2021/09/08 19:34:22;;;;;;;;;;;;;;;;;;;;;
2021/09/08 19:37:38;;;;;;;;;;;;;;;;;;;;;
2021/09/08 20:06:28;;;;;;;;;14.00;14.00;;;;;27.85;54.82;100542.84;4947687;23;46714;-75
2021/09/08 21:12:06;;;;;;;;;13.00;12.00;;;;;27.34;55.33;100601.25;1016485;27;46210;-74
2021/09/08 21:43:40;;;;;;;;;16.00;15.00;;;;;27.22;55.34;100664.69;4870217;29;45793;-65
2021/09/08 21:46:07;;;;;;;;;15.75;15.50;;;;;27.20;55.96;100663.97;4873067;29;45491;-65
2021/09/08 21:48:34;;;;;;;;;13.75;13.75;;;;;27.04;56.16;100657.34;4866976;29;47262;-66
2021/09/08 21:51:19;;;;;;;;;;;;;;;;;;;;;
2021/09/08 21:55:02;;;;;;;;;;;;;;;;;;;;;
2021/09/08 21:58:01;;;;;;;;;17.50;17.00;;;;;26.86;57.25;100648.31;4791560;29;73160;-66
